createdAt,value
2019-04-01T00:01:22.869Z,51.63
2019-04-01T00:03:52.472Z,51.69
2019-04-01T00:06:21.954Z,51.78
2019-04-01T00:08:51.485Z,51.85
2019-04-01T00:11:21.050Z,51.92
2019-04-01T00:13:50.531Z,52.00
2019-04-01T00:16:20.058Z,52.08
2019-04-01T00:19:02.356Z,52.15
2019-04-01T00:21:21.843Z,52.23
2019-04-01T00:23:51.337Z,52.25
2019-04-01T00:26:20.904Z,52.33
2019-04-01T00:28:50.471Z,52.38
2019-04-01T00:31:19.937Z,52.49
2019-04-01T00:33:49.424Z,52.54
2019-04-01T00:36:18.919Z,52.60
2019-04-01T00:38:48.500Z,52.66
2019-04-01T00:41:18.174Z,52.69
2019-04-01T00:43:55.021Z,52.75
2019-04-01T00:46:24.957Z,52.81
2019-04-01T00:48:54.653Z,52.87
2019-04-01T00:51:24.359Z,52.94
2019-04-01T00:53:53.770Z,53.00
2019-04-01T00:56:23.277Z,53.06
2019-04-01T00:58:52.853Z,53.10
2019-04-01T01:01:22.497Z,53.17
2019-04-01T01:03:51.986Z,53.24
2019-04-01T01:06:21.447Z,53.34
2019-04-01T01:08:50.981Z,53.38
2019-04-01T01:11:21.422Z,53.44
2019-04-01T01:13:50.849Z,53.50
2019-04-01T01:16:20.381Z,53.57
2019-04-01T01:18:49.881Z,53.62
2019-04-01T01:21:19.305Z,53.69
2019-04-01T01:23:48.812Z,53.74
2019-04-01T01:26:18.297Z,53.79
2019-04-01T01:28:47.718Z,53.86
2019-04-01T01:31:17.289Z,53.93
2019-04-01T01:33:46.779Z,53.96
2019-04-01T01:36:16.264Z,54.03
2019-04-01T01:38:50.786Z,54.07
2019-04-01T01:41:20.207Z,54.12
2019-04-01T01:43:50.709Z,54.19
2019-04-01T01:46:20.129Z,54.24
2019-04-01T01:48:49.833Z,54.30
2019-04-01T01:51:19.321Z,54.35
2019-04-01T01:53:48.754Z,54.41
2019-04-01T01:56:18.249Z,54.47
2019-04-01T01:58:47.907Z,54.52
2019-04-01T02:01:17.341Z,54.58
2019-04-01T02:03:46.811Z,54.66
2019-04-01T02:06:16.365Z,54.74
2019-04-01T02:08:45.792Z,54.78
2019-04-01T02:11:15.292Z,54.85
2019-04-01T02:13:44.920Z,54.89
2019-04-01T02:16:14.543Z,54.98
2019-04-01T02:18:44.277Z,55.03
2019-04-01T02:21:13.697Z,55.10
2019-04-01T02:23:43.120Z,55.19
2019-04-01T02:26:12.571Z,55.20
2019-04-01T02:28:41.996Z,55.24
2019-04-01T02:31:12.698Z,55.35
2019-04-01T02:33:42.193Z,55.39
2019-04-01T02:36:11.803Z,55.46
2019-04-01T02:38:41.234Z,55.52
2019-04-01T02:41:10.827Z,55.60
2019-04-01T02:43:40.312Z,55.67
2019-04-01T02:46:09.929Z,55.75
2019-04-01T02:48:39.454Z,55.79
2019-04-01T02:51:08.942Z,55.84
2019-04-01T02:53:38.509Z,55.95
2019-04-01T02:56:08.082Z,55.99
2019-04-01T02:58:39.459Z,56.05
2019-04-01T03:01:09.075Z,56.11
2019-04-01T03:03:38.495Z,56.16
2019-04-01T03:06:08.029Z,56.22
2019-04-01T03:08:37.582Z,56.29
2019-04-01T03:11:10.391Z,56.34
2019-04-01T03:13:38.307Z,56.37
2019-04-01T03:16:07.818Z,56.46
2019-04-01T03:18:37.321Z,56.55
2019-04-01T03:21:06.917Z,56.61
2019-04-01T03:23:36.326Z,56.66
2019-04-01T03:26:05.888Z,56.71
2019-04-01T03:28:35.404Z,56.77
2019-04-01T03:31:05.054Z,56.86
2019-04-01T03:33:34.526Z,56.91
2019-04-01T03:36:04.147Z,56.98
2019-04-01T03:38:33.581Z,57.04
2019-04-01T03:41:03.022Z,57.07
2019-04-01T03:43:32.667Z,57.17
2019-04-01T03:46:02.153Z,57.25
2019-04-01T03:48:31.686Z,57.32
2019-04-01T03:51:01.122Z,57.39
2019-04-01T03:53:30.705Z,57.44
2019-04-01T03:56:00.266Z,57.50
2019-04-01T03:58:29.881Z,57.54
2019-04-01T04:00:59.468Z,57.58
2019-04-01T04:03:29.001Z,57.66
2019-04-01T04:05:58.633Z,57.72
2019-04-01T04:08:28.138Z,57.77
2019-04-01T04:10:57.699Z,57.87
2019-04-01T04:13:27.262Z,57.90
2019-04-01T04:15:56.997Z,57.95
2019-04-01T04:18:26.561Z,58.02
2019-04-01T04:20:56.059Z,58.07
2019-04-01T04:23:25.651Z,58.12
2019-04-01T04:25:55.221Z,58.18
2019-04-01T04:28:24.723Z,58.25
2019-04-01T04:30:54.298Z,58.32
2019-04-01T04:33:26.665Z,58.37
2019-04-01T04:35:56.165Z,58.42
2019-04-01T04:38:25.654Z,58.49
2019-04-01T04:40:55.254Z,58.59
2019-04-01T04:43:24.876Z,58.63
2019-04-01T04:45:54.644Z,58.68
2019-04-01T04:48:24.181Z,58.71
2019-04-01T04:50:53.645Z,58.79
2019-04-01T04:53:23.149Z,58.87
2019-04-01T04:55:52.714Z,58.90
2019-04-01T04:58:22.311Z,58.97
2019-04-01T05:00:52.638Z,59.01
2019-04-01T05:03:22.164Z,59.08
2019-04-01T05:05:51.655Z,59.12
2019-04-01T05:08:21.165Z,59.17
2019-04-01T05:10:50.647Z,59.20
2019-04-01T05:13:30.190Z,59.26
2019-04-01T05:16:01.529Z,59.26
2019-04-01T05:20:16.348Z,59.31
2019-04-01T05:21:19.530Z,59.33
2019-04-01T05:24:10.704Z,59.36
2019-04-01T05:26:42.836Z,59.38
2019-04-01T05:29:15.208Z,59.42
2019-04-01T05:31:53.777Z,59.44
2019-04-01T05:34:25.459Z,59.47
2019-04-01T05:39:58.981Z,59.50
2019-04-01T05:42:36.422Z,59.48
2019-04-01T05:45:07.687Z,59.46
2019-04-01T05:51:20.759Z,59.40
2019-04-01T05:53:55.102Z,59.31
2019-04-01T05:56:49.034Z,59.26
2019-04-01T05:59:23.061Z,59.20
2019-04-01T06:01:56.412Z,59.15
2019-04-01T06:04:25.693Z,59.08
2019-04-01T06:09:39.487Z,58.93
2019-04-01T06:12:14.937Z,58.85
2019-04-01T06:15:16.435Z,58.78
2019-04-01T06:18:10.172Z,58.71
2019-04-01T06:20:18.447Z,58.63
2019-04-01T06:22:48.262Z,58.56
2019-04-01T06:28:17.940Z,58.39
2019-04-01T06:30:47.800Z,58.30
2019-04-01T06:33:19.083Z,58.20
2019-04-01T06:36:13.307Z,58.10
2019-04-01T06:38:23.114Z,58.04
2019-04-01T06:40:52.798Z,57.93
2019-04-01T06:43:22.581Z,57.84
2019-04-01T06:45:52.342Z,57.75
2019-04-01T06:48:22.025Z,57.67
2019-04-01T06:51:16.291Z,57.56
2019-04-01T06:53:51.314Z,57.44
2019-04-01T06:56:39.253Z,57.33
2019-04-01T06:59:10.594Z,57.17
2019-04-01T07:01:59.313Z,57.00
2019-04-01T07:04:29.153Z,56.82
2019-04-01T07:06:58.887Z,56.63
2019-04-01T07:09:28.540Z,56.47
2019-04-01T07:11:58.319Z,56.32
2019-04-01T07:14:46.330Z,56.13
2019-04-01T07:17:14.445Z,55.96
2019-04-01T07:19:44.125Z,55.73
2019-04-01T07:22:19.720Z,55.56
2019-04-01T07:28:31.214Z,55.18
2019-04-01T07:31:00.862Z,54.89
2019-04-01T07:33:30.539Z,54.70
2019-04-01T07:36:00.285Z,54.53
2019-04-01T07:38:30.155Z,54.34
2019-04-01T07:40:59.998Z,54.15
2019-04-01T07:43:30.404Z,53.96
2019-04-01T07:46:15.857Z,53.76
2019-04-01T07:48:45.841Z,53.54
2019-04-01T07:51:25.649Z,53.33
2019-04-01T07:54:01.988Z,53.16
2019-04-01T07:56:38.306Z,52.96
2019-04-01T07:59:08.016Z,52.77
2019-04-01T08:03:01.790Z,52.58
2019-04-01T08:08:15.083Z,52.21
2019-04-01T08:10:46.476Z,52.02
2019-04-01T08:13:17.993Z,51.84
2019-04-01T08:15:53.194Z,51.70
2019-04-01T08:19:15.798Z,51.55
2019-04-01T08:24:18.173Z,51.28
2019-04-01T08:27:03.124Z,51.09
2019-04-01T08:29:32.789Z,50.96
2019-04-01T08:32:14.027Z,50.80
2019-04-01T08:34:51.509Z,50.69
2019-04-01T09:11:39.655Z,49.22
2019-04-01T09:20:46.560Z,48.13
2019-04-01T09:23:41.969Z,47.95
2019-04-01T09:26:04.106Z,47.84
2019-04-01T09:28:36.876Z,47.68
2019-04-01T09:31:10.299Z,47.55
2019-04-01T09:33:39.978Z,47.40
2019-04-01T09:36:10.261Z,47.26
2019-04-01T09:45:10.864Z,46.79
2019-04-01T09:47:40.453Z,46.60
2019-04-01T09:50:40.762Z,46.46
2019-04-01T09:56:44.757Z,46.14
2019-04-01T09:59:14.569Z,45.95
2019-04-01T10:01:44.256Z,45.84
2019-04-01T10:04:28.658Z,45.73
2019-04-01T10:07:02.947Z,45.57
2019-04-01T10:09:46.164Z,45.38
2019-04-01T10:12:20.433Z,45.30
2019-04-01T10:23:53.342Z,44.78
2019-04-01T10:38:22.445Z,43.93
2019-04-01T10:40:52.082Z,43.73
2019-04-01T10:43:21.833Z,43.54
2019-04-01T10:45:51.425Z,43.42
2019-04-01T10:48:21.077Z,43.28
2019-04-01T10:50:50.650Z,43.16
2019-04-01T10:53:20.367Z,43.02
2019-04-01T10:55:49.972Z,42.86
2019-04-01T10:58:19.590Z,42.72
2019-04-01T11:00:49.101Z,42.59
2019-04-01T11:03:18.677Z,42.43
2019-04-01T11:05:48.241Z,42.30
2019-04-01T11:08:17.920Z,42.16
2019-04-01T11:10:47.491Z,42.02
2019-04-01T11:13:16.999Z,41.89
2019-04-01T11:15:46.578Z,41.75
2019-04-01T11:18:25.398Z,41.61
2019-04-01T11:38:34.296Z,40.61
2019-04-01T11:41:03.547Z,40.36
2019-04-01T11:43:45.738Z,40.27
2019-04-01T11:46:12.835Z,40.16
2019-04-01T11:48:49.089Z,40.02
2019-04-01T11:51:49.594Z,39.88
2019-04-01T11:54:10.223Z,39.68
2019-04-01T11:56:56.710Z,39.53
2019-04-01T12:06:23.460Z,39.05
2019-04-01T12:14:50.293Z,38.66
2019-04-01T12:32:13.187Z,38.12
2019-04-01T12:34:42.844Z,37.95
2019-04-01T12:37:15.762Z,37.86
2019-04-01T12:45:15.777Z,37.59
2019-04-01T12:48:15.803Z,37.48
2019-04-01T12:51:00.956Z,37.38
2019-04-01T12:57:18.816Z,37.23
2019-04-01T13:02:59.665Z,37.01
2019-04-01T13:05:37.593Z,36.90
2019-04-01T13:08:20.977Z,36.85
2019-04-01T13:10:56.401Z,36.76
2019-04-01T13:13:37.809Z,36.71
2019-04-01T13:17:00.889Z,36.61
2019-04-01T13:18:48.078Z,36.54
2019-04-01T13:21:23.286Z,36.48
2019-04-01T13:23:59.775Z,36.40
2019-04-01T13:26:44.311Z,36.32
2019-04-01T13:29:13.970Z,36.25
2019-04-01T13:32:00.406Z,36.18
2019-04-01T13:34:55.527Z,36.15
2019-04-01T13:43:37.253Z,35.96
2019-04-01T13:48:57.836Z,35.82
2019-04-01T13:51:25.819Z,35.76
2019-04-01T13:54:07.955Z,35.73
2019-04-01T13:56:43.075Z,35.67
2019-04-01T13:59:17.486Z,35.63
2019-04-01T14:01:50.311Z,35.56
2019-04-01T14:04:22.300Z,35.51
2019-04-01T14:09:58.441Z,35.40
2019-04-01T14:15:21.525Z,35.26
2019-04-01T14:24:02.363Z,35.08
2019-04-01T14:24:37.592Z,35.20
2019-04-01T14:26:41.094Z,35.04
2019-04-01T14:29:18.954Z,35.02
2019-04-01T14:32:18.020Z,34.99
2019-04-01T14:34:30.862Z,34.92
2019-04-01T14:37:02.127Z,34.92
2019-04-01T14:39:34.763Z,34.87
2019-04-01T14:42:03.058Z,34.84
2019-04-01T14:44:32.640Z,34.82
2019-04-01T14:47:03.679Z,34.80
2019-04-01T14:49:33.577Z,34.79
2019-04-01T14:52:03.056Z,34.77
2019-04-01T14:54:34.094Z,34.75
2019-04-01T14:57:04.211Z,34.74
2019-04-01T14:59:33.650Z,34.72
2019-04-01T15:02:03.817Z,34.71
2019-04-01T15:04:34.808Z,34.66
2019-04-01T15:07:04.606Z,34.64
2019-04-01T15:09:34.120Z,34.64
2019-04-01T15:12:03.872Z,34.61
2019-04-01T15:14:33.445Z,34.60
2019-04-01T15:17:02.966Z,34.60
2019-04-01T15:19:32.663Z,34.61
2019-04-01T15:22:02.285Z,34.62
2019-04-01T15:24:31.744Z,34.63
2019-04-01T15:27:01.176Z,34.63
2019-04-01T15:29:30.749Z,34.64
2019-04-01T15:32:00.361Z,34.64
2019-04-01T15:34:29.866Z,34.65
2019-04-01T15:36:59.368Z,34.65
2019-04-01T15:39:28.843Z,34.65
2019-04-01T15:42:04.328Z,34.66
2019-04-01T15:44:51.159Z,34.67
2019-04-01T15:47:23.201Z,34.71
2019-04-01T15:49:52.759Z,34.70
2019-04-01T15:52:22.830Z,34.73
2019-04-01T15:54:52.464Z,34.76
2019-04-01T15:57:22.110Z,34.77
2019-04-01T15:59:51.773Z,34.78
2019-04-01T16:02:21.408Z,34.83
2019-04-01T16:04:51.162Z,34.87
2019-04-01T16:07:22.591Z,34.86
2019-04-01T16:09:52.281Z,34.89
2019-04-01T16:12:21.669Z,34.95
2019-04-01T16:14:51.093Z,34.98
2019-04-01T16:17:21.955Z,35.02
2019-04-01T16:19:52.577Z,35.03
2019-04-01T16:22:22.346Z,35.10
2019-04-01T16:24:51.846Z,35.13
2019-04-01T16:27:21.443Z,35.19
2019-04-01T16:29:50.991Z,35.22
2019-04-01T16:32:20.419Z,35.26
2019-04-01T16:34:49.921Z,35.30
2019-04-01T16:37:19.362Z,35.35
2019-04-01T16:39:49.200Z,35.41
2019-04-01T16:42:19.497Z,35.45
2019-04-01T16:44:49.314Z,35.49
2019-04-01T16:47:18.856Z,35.54
2019-04-01T16:49:48.388Z,35.60
2019-04-01T16:52:18.058Z,35.64
2019-04-01T16:54:58.568Z,35.72
2019-04-01T16:57:28.205Z,35.76
2019-04-01T16:59:57.882Z,35.80
2019-04-01T17:02:27.454Z,35.84
2019-04-01T17:05:00.231Z,35.92
2019-04-01T17:07:28.246Z,35.96
2019-04-01T17:09:58.285Z,36.02
2019-04-01T17:12:28.459Z,36.06
2019-04-01T17:14:58.307Z,36.12
2019-04-01T17:17:27.873Z,36.17
2019-04-01T17:19:57.359Z,36.26
2019-04-01T17:22:27.046Z,36.29
2019-04-01T17:24:57.429Z,36.37
2019-04-01T17:27:27.428Z,36.45
2019-04-01T17:29:56.995Z,36.51
2019-04-01T17:32:26.736Z,36.56
2019-04-01T17:34:56.383Z,36.62
2019-04-01T17:37:25.891Z,36.69
2019-04-01T17:39:55.569Z,36.77
2019-04-01T17:42:26.903Z,36.83
2019-04-01T17:45:02.498Z,36.91
2019-04-01T17:47:32.559Z,37.02
2019-04-01T17:50:02.129Z,37.06
2019-04-01T17:52:31.893Z,37.15
2019-04-01T17:55:01.393Z,37.23
2019-04-01T17:57:31.193Z,37.33
2019-04-01T18:00:00.912Z,37.40
2019-04-01T18:02:31.280Z,37.49
2019-04-01T18:05:02.718Z,37.57
2019-04-01T18:07:32.402Z,37.66
2019-04-01T18:10:02.006Z,37.73
2019-04-01T18:12:32.041Z,37.81
2019-04-01T18:15:01.634Z,37.89
2019-04-01T18:17:31.234Z,37.97
2019-04-01T18:20:00.889Z,38.03
2019-04-01T18:22:30.817Z,38.12
2019-04-01T18:25:00.321Z,38.23
2019-04-01T18:27:30.132Z,38.33
2019-04-01T18:29:59.679Z,38.39
2019-04-01T18:32:29.178Z,38.47
2019-04-01T18:34:58.717Z,38.56
2019-04-01T18:37:28.254Z,38.62
2019-04-01T18:39:57.760Z,38.73
2019-04-01T18:42:27.320Z,38.77
2019-04-01T18:44:56.893Z,38.86
2019-04-01T18:47:26.569Z,38.93
2019-04-01T18:49:56.070Z,38.99
2019-04-01T18:52:25.758Z,39.10
2019-04-01T18:54:55.333Z,39.18
2019-04-01T18:57:24.964Z,39.23
2019-04-01T18:59:54.387Z,39.33
2019-04-01T19:02:23.961Z,39.41
2019-04-01T19:04:53.583Z,39.46
2019-04-01T19:07:23.164Z,39.53
2019-04-01T19:10:05.604Z,39.62
2019-04-01T19:12:23.913Z,39.68
2019-04-01T19:14:53.487Z,39.76
2019-04-01T19:17:23.113Z,39.84
2019-04-01T19:19:52.613Z,39.90
2019-04-01T19:22:22.053Z,39.94
2019-04-01T19:24:51.563Z,40.03
2019-04-01T19:27:22.115Z,40.07
2019-04-01T19:29:51.906Z,40.11
2019-04-01T19:32:21.544Z,40.16
2019-04-01T19:34:51.116Z,40.21
2019-04-01T19:37:20.619Z,40.22
2019-04-01T19:39:50.130Z,40.28
2019-04-01T19:42:19.906Z,40.31
2019-04-01T19:44:49.590Z,40.34
2019-04-01T19:47:19.366Z,40.38
2019-04-01T19:49:48.908Z,40.39
2019-04-01T19:52:18.596Z,40.41
2019-04-01T19:54:48.017Z,40.43
2019-04-01T19:57:17.606Z,40.47
2019-04-01T19:59:47.332Z,40.47
2019-04-01T20:02:16.930Z,40.51
2019-04-01T20:04:46.729Z,40.57
2019-04-01T20:07:16.515Z,40.58
2019-04-01T20:09:46.383Z,40.60
2019-04-01T20:12:16.037Z,40.64
2019-04-01T20:14:45.531Z,40.68
2019-04-01T20:17:15.107Z,40.71
2019-04-01T20:19:46.513Z,40.73
2019-04-01T20:22:17.350Z,40.76
2019-04-01T20:24:47.918Z,40.78
2019-04-01T20:27:20.631Z,40.81
2019-04-01T20:29:51.592Z,40.84
2019-04-01T20:32:21.303Z,40.87
2019-04-01T20:34:56.762Z,40.88
2019-04-01T20:37:22.134Z,40.91
2019-04-01T20:39:51.628Z,40.93
2019-04-01T20:42:21.420Z,40.94
2019-04-01T20:44:50.998Z,40.98
2019-04-01T20:47:22.372Z,41.01
2019-04-01T20:49:51.868Z,41.01
2019-04-01T20:52:21.799Z,41.02
2019-04-01T20:54:51.467Z,41.07
2019-04-01T20:57:21.961Z,41.10
2019-04-01T20:59:51.657Z,41.14
2019-04-01T21:02:21.458Z,41.16
2019-04-01T21:04:50.903Z,41.21
2019-04-01T21:07:20.467Z,41.24
2019-04-01T21:09:50.047Z,41.25
2019-04-01T21:12:19.764Z,41.28
2019-04-01T21:14:49.305Z,41.34
2019-04-01T21:17:18.798Z,41.37
2019-04-01T21:19:48.373Z,41.37
2019-04-01T21:22:17.942Z,41.42
2019-04-01T21:24:47.513Z,41.44
2019-04-01T21:27:17.087Z,41.46
2019-04-01T21:29:46.698Z,41.50
2019-04-01T21:32:17.083Z,41.54
2019-04-01T21:34:46.783Z,41.59
2019-04-01T21:37:16.279Z,41.64
2019-04-01T21:39:45.916Z,41.70
2019-04-01T21:42:15.487Z,41.72
2019-04-01T21:44:46.934Z,41.77
2019-04-01T21:47:16.590Z,41.83
2019-04-01T21:49:47.188Z,41.89
2019-04-01T21:52:16.695Z,41.93
2019-04-01T21:54:46.116Z,41.99
2019-04-01T21:57:15.617Z,42.03
2019-04-01T21:59:46.007Z,42.05
2019-04-01T22:02:15.715Z,42.09
2019-04-01T22:04:45.278Z,42.09
2019-04-01T22:07:14.764Z,42.13
2019-04-01T22:09:44.363Z,42.11
2019-04-01T22:12:14.061Z,42.12
2019-04-01T22:14:43.770Z,42.15
2019-04-01T22:17:13.384Z,42.16
2019-04-01T22:19:42.807Z,42.17
2019-04-01T22:22:12.492Z,42.17
2019-04-01T22:24:41.899Z,42.20
2019-04-01T22:27:11.369Z,42.20
2019-04-01T22:29:40.857Z,42.22
2019-04-01T22:32:10.453Z,42.21
2019-04-01T22:34:40.022Z,42.23
2019-04-01T22:37:09.524Z,42.23
2019-04-01T22:39:38.957Z,42.23
2019-04-01T22:42:08.768Z,42.25
2019-04-01T22:44:38.184Z,42.27
2019-04-01T22:47:07.756Z,42.27
2019-04-01T22:49:37.346Z,42.27
2019-04-01T22:52:06.932Z,42.29
2019-04-01T22:54:37.579Z,42.32
2019-04-01T22:57:07.069Z,42.36
2019-04-01T22:59:36.486Z,42.40
2019-04-01T23:02:06.049Z,42.43
2019-04-01T23:04:37.066Z,42.45
2019-04-01T23:07:06.775Z,42.52
2019-04-01T23:09:36.332Z,42.54
2019-04-01T23:12:05.774Z,42.59
2019-04-01T23:14:35.267Z,42.64
2019-04-01T23:17:04.870Z,42.70
2019-04-01T23:19:34.918Z,42.79
2019-04-01T23:22:05.800Z,42.83
2019-04-01T23:24:35.230Z,42.89
2019-04-01T23:27:04.729Z,42.95
2019-04-01T23:29:34.266Z,43.01
2019-04-01T23:32:03.755Z,43.07
2019-04-01T23:34:33.275Z,43.15
2019-04-01T23:37:02.760Z,43.21
2019-04-01T23:39:32.255Z,43.28
2019-04-01T23:42:01.859Z,43.35
2019-04-01T23:44:31.361Z,43.39
2019-04-01T23:47:00.854Z,43.51
2019-04-01T23:49:30.364Z,43.55
2019-04-01T23:51:59.922Z,43.63
2019-04-01T23:54:31.017Z,43.71
2019-04-01T23:57:00.788Z,43.78
2019-04-01T23:59:30.277Z,43.85
